createdAt,value
2022-12-02T00:04:03.217Z,23.60
2022-12-02T00:09:17.448Z,23.50
2022-12-02T00:14:24.069Z,23.40
2022-12-02T00:19:28.217Z,23.30
2022-12-02T00:24:31.012Z,23.20
2022-12-02T00:29:33.971Z,23.10
2022-12-02T00:34:38.246Z,23.00
2022-12-02T00:39:41.049Z,23.00
2022-12-02T00:45:01.692Z,23.00
2022-12-02T00:50:06.877Z,22.90
2022-12-02T00:55:10.520Z,22.80
2022-12-02T01:00:14.382Z,22.70
2022-12-02T01:05:18.702Z,22.70
2022-12-02T01:10:21.487Z,22.60
2022-12-02T01:15:24.557Z,22.50
2022-12-02T01:20:28.746Z,22.50
2022-12-02T01:25:31.577Z,22.40
2022-12-02T01:30:34.536Z,22.30
2022-12-02T01:35:38.799Z,22.30
2022-12-02T01:40:42.106Z,22.20
2022-12-02T01:45:45.412Z,22.20
2022-12-02T01:50:50.256Z,22.10
2022-12-02T01:55:53.168Z,22.00
2022-12-02T02:00:56.668Z,22.00
2022-12-02T02:06:00.890Z,21.90
2022-12-02T02:11:03.841Z,21.90
2022-12-02T02:16:07.017Z,21.80
2022-12-02T02:21:19.494Z,21.80
2022-12-02T02:26:24.167Z,21.70
2022-12-02T02:31:27.013Z,21.70
2022-12-02T02:36:29.973Z,21.60
2022-12-02T02:41:34.405Z,21.60
2022-12-02T02:46:37.490Z,21.60
2022-12-02T02:51:40.386Z,21.50
2022-12-02T02:56:44.706Z,21.50
2022-12-02T03:01:50.238Z,21.40
2022-12-02T03:06:53.451Z,21.40
2022-12-02T03:11:59.641Z,21.30
2022-12-02T03:17:04.615Z,21.30
2022-12-02T03:22:08.142Z,21.20
2022-12-02T03:27:14.003Z,21.20
2022-12-02T03:32:16.930Z,21.20
2022-12-02T03:37:20.238Z,21.10
2022-12-02T03:42:24.519Z,21.10
2022-12-02T03:47:27.403Z,21.00
2022-12-02T03:52:30.627Z,21.00
2022-12-02T03:57:35.384Z,21.00
2022-12-02T04:02:38.242Z,20.90
2022-12-02T04:07:41.130Z,20.90
2022-12-02T04:12:45.299Z,20.90
2022-12-02T04:17:48.116Z,20.90
2022-12-02T04:22:50.958Z,20.80
2022-12-02T04:27:55.121Z,20.80
2022-12-02T04:32:57.945Z,20.80
2022-12-02T04:38:00.890Z,20.70
2022-12-02T04:43:05.120Z,20.70
2022-12-02T04:48:08.007Z,20.70
2022-12-02T04:53:10.878Z,20.70
2022-12-02T04:58:15.149Z,20.60
2022-12-02T05:03:18.078Z,20.60
2022-12-02T05:08:20.939Z,20.60
2022-12-02T05:13:25.088Z,20.60
2022-12-02T05:18:27.919Z,20.50
2022-12-02T05:23:30.721Z,20.60
2022-12-02T05:28:34.930Z,20.50
2022-12-02T05:33:37.774Z,20.50
2022-12-02T05:38:40.671Z,20.50
2022-12-02T05:43:45.141Z,20.50
2022-12-02T05:48:50.578Z,20.40
2022-12-02T05:53:53.413Z,20.40
2022-12-02T05:59:01.962Z,20.40
2022-12-02T06:04:05.495Z,20.40
2022-12-02T06:09:14.208Z,20.40
2022-12-02T06:14:21.461Z,20.30
2022-12-02T06:19:27.713Z,20.30
2022-12-02T06:24:33.197Z,20.30
2022-12-02T06:29:37.580Z,20.30
2022-12-02T06:34:42.034Z,20.20
2022-12-02T06:40:19.456Z,20.20
2022-12-02T06:45:28.859Z,20.20
2022-12-02T06:50:40.743Z,20.20
2022-12-02T06:55:45.553Z,20.20
2022-12-02T07:00:50.212Z,20.20
2022-12-02T07:05:54.986Z,20.10
2022-12-02T07:10:57.935Z,20.10
2022-12-02T07:16:02.146Z,20.10
2022-12-02T07:21:05.118Z,20.10
2022-12-02T07:26:09.993Z,20.00
2022-12-02T07:31:22.425Z,20.00
2022-12-02T07:36:25.349Z,20.00
2022-12-02T07:41:31.951Z,19.90
2022-12-02T07:46:39.262Z,19.90
2022-12-02T07:51:42.116Z,19.90
2022-12-02T07:56:44.948Z,19.90
2022-12-02T08:01:49.170Z,19.90
2022-12-02T08:06:52.084Z,19.90
2022-12-02T08:11:54.962Z,19.90
2022-12-02T08:16:59.278Z,19.90
2022-12-02T08:22:02.135Z,20.00
2022-12-02T08:27:05.134Z,20.10
2022-12-02T08:32:09.364Z,20.30
2022-12-02T08:37:12.801Z,20.50
2022-12-02T08:42:15.732Z,20.50
2022-12-02T08:47:20.037Z,20.50
2022-12-02T08:52:22.900Z,20.60
2022-12-02T08:57:25.977Z,20.60
2022-12-02T09:02:30.237Z,20.70
2022-12-02T09:07:33.182Z,20.80
2022-12-02T09:12:36.124Z,20.90
2022-12-02T09:17:40.359Z,21.00
2022-12-02T09:22:45.434Z,21.10
2022-12-02T09:27:48.325Z,21.10
2022-12-02T09:32:52.592Z,21.10
2022-12-02T09:37:55.411Z,21.20
2022-12-02T09:42:58.567Z,21.20
2022-12-02T09:48:03.159Z,21.30
2022-12-02T09:53:07.905Z,21.40
2022-12-02T09:58:15.448Z,21.50
2022-12-02T10:03:24.852Z,21.60
2022-12-02T10:08:32.137Z,21.60
2022-12-02T10:13:39.657Z,21.60
2022-12-02T10:18:44.211Z,21.60
2022-12-02T10:23:56.377Z,21.60
2022-12-02T10:29:06.074Z,21.70
2022-12-02T10:34:21.866Z,21.70
2022-12-02T10:39:31.396Z,21.80
2022-12-02T10:44:42.468Z,21.90
2022-12-02T10:49:50.674Z,21.90
2022-12-02T10:54:56.684Z,22.00
2022-12-02T11:00:02.666Z,22.00
2022-12-02T11:05:16.631Z,22.00
2022-12-02T11:10:22.002Z,21.90
2022-12-02T11:15:36.440Z,22.00
2022-12-02T11:20:43.866Z,22.10
2022-12-02T11:26:10.908Z,22.20
2022-12-02T11:31:28.073Z,22.30
2022-12-02T11:36:33.429Z,22.60
2022-12-02T11:42:13.552Z,22.90
2022-12-02T11:47:30.670Z,23.40
2022-12-02T11:52:40.695Z,23.80
2022-12-02T11:57:47.680Z,24.00
2022-12-02T12:03:05.920Z,24.30
2022-12-02T12:08:10.287Z,24.60
2022-12-02T12:13:22.122Z,24.90
2022-12-02T12:18:49.137Z,25.10
2022-12-02T12:23:53.400Z,25.30
2022-12-02T12:28:56.247Z,25.50
2022-12-02T12:33:59.245Z,25.60
2022-12-02T12:39:05.027Z,25.70
2022-12-02T12:44:08.191Z,25.80
2022-12-02T12:49:11.291Z,25.80
2022-12-02T12:54:15.489Z,25.80
2022-12-02T12:59:18.322Z,25.80
2022-12-02T13:04:21.213Z,25.90
2022-12-02T13:09:25.398Z,25.90
2022-12-02T13:14:28.230Z,26.00
2022-12-02T13:19:31.096Z,26.00
2022-12-02T13:24:41.127Z,26.00
2022-12-02T13:29:45.686Z,26.00
2022-12-02T13:34:48.605Z,26.00
2022-12-02T13:39:53.214Z,25.90
2022-12-02T13:44:56.320Z,25.80
2022-12-02T13:49:59.167Z,25.70
2022-12-02T13:55:03.418Z,25.70
2022-12-02T14:00:07.705Z,25.70
2022-12-02T14:05:12.268Z,25.70
2022-12-02T14:10:16.546Z,25.60
2022-12-02T14:15:19.372Z,25.60
2022-12-02T14:20:22.224Z,25.50
2022-12-02T14:25:26.430Z,25.40
2022-12-02T14:30:29.368Z,25.40
2022-12-02T14:35:32.213Z,25.30
2022-12-02T14:40:36.392Z,25.20
2022-12-02T14:45:39.286Z,25.00
2022-12-02T14:50:42.288Z,24.90
2022-12-02T14:55:47.096Z,24.80
2022-12-02T15:00:49.992Z,24.80
2022-12-02T15:05:52.861Z,24.70
2022-12-02T15:10:57.087Z,24.60
2022-12-02T15:16:03.453Z,24.60
2022-12-02T15:21:10.663Z,24.50
2022-12-02T15:26:17.639Z,24.30
2022-12-02T15:31:21.006Z,24.20
2022-12-02T15:36:23.935Z,24.00
2022-12-02T15:41:28.185Z,23.90
2022-12-02T15:46:31.223Z,23.80
2022-12-02T15:51:34.233Z,23.60
2022-12-02T15:56:38.456Z,23.50
2022-12-02T16:01:41.420Z,23.40
2022-12-02T16:06:44.397Z,23.30
2022-12-02T16:11:48.583Z,23.20
2022-12-02T16:16:51.497Z,23.10
2022-12-02T16:21:54.335Z,23.00
2022-12-02T16:26:58.533Z,23.00
2022-12-02T16:32:01.426Z,22.90
2022-12-02T16:37:04.431Z,22.80
2022-12-02T16:42:08.669Z,22.80
2022-12-02T16:47:11.510Z,22.70
2022-12-02T16:52:14.372Z,22.60
2022-12-02T16:57:18.694Z,22.50
2022-12-02T17:02:21.600Z,22.40
2022-12-02T17:07:24.580Z,22.40
2022-12-02T17:12:28.789Z,22.30
2022-12-02T17:17:45.340Z,22.30
2022-12-02T17:22:49.260Z,22.30
2022-12-02T17:27:53.523Z,22.30
2022-12-02T17:32:57.184Z,22.30
2022-12-02T17:38:00.228Z,22.20
2022-12-02T17:43:04.435Z,22.20
2022-12-02T17:48:07.490Z,22.10
2022-12-02T17:53:10.416Z,22.00
2022-12-02T17:58:14.621Z,22.00
2022-12-02T18:03:17.480Z,21.90
2022-12-02T18:08:20.406Z,21.90
2022-12-02T18:13:24.582Z,21.90
2022-12-02T18:18:27.458Z,21.80
2022-12-02T18:23:30.308Z,21.70
2022-12-02T18:28:34.479Z,21.70
2022-12-02T18:33:37.468Z,21.70
2022-12-02T18:38:40.304Z,21.70
2022-12-02T18:43:44.501Z,21.70
2022-12-02T18:48:47.343Z,21.70
2022-12-02T18:53:50.166Z,21.60
2022-12-02T18:58:54.459Z,21.50
2022-12-02T19:03:57.344Z,21.50
2022-12-02T19:09:00.197Z,21.50
2022-12-02T19:14:04.416Z,21.50
2022-12-02T19:19:07.339Z,21.50
2022-12-02T19:24:10.240Z,21.40
2022-12-02T19:29:14.545Z,21.40
2022-12-02T19:34:17.460Z,21.40
2022-12-02T19:39:20.416Z,21.30
2022-12-02T19:44:25.842Z,21.30
2022-12-02T19:49:28.829Z,21.40
2022-12-02T19:54:31.725Z,21.40
2022-12-02T19:59:36.080Z,21.40
2022-12-02T20:04:53.056Z,21.50
2022-12-02T20:09:55.974Z,21.50
2022-12-02T20:15:00.203Z,21.40
2022-12-02T20:20:03.948Z,21.50
2022-12-02T20:25:08.135Z,21.50
2022-12-02T20:30:13.501Z,21.50
2022-12-02T20:35:16.661Z,21.50
2022-12-02T20:40:19.748Z,21.80
2022-12-02T20:45:24.380Z,22.20
2022-12-02T20:50:27.448Z,22.60
2022-12-02T20:55:30.366Z,22.80
2022-12-02T21:00:34.645Z,23.00
2022-12-02T21:05:37.591Z,23.20
2022-12-02T21:10:40.847Z,24.00
2022-12-02T21:15:45.249Z,24.90
2022-12-02T21:20:48.310Z,25.80
2022-12-02T21:25:51.204Z,26.70
2022-12-02T21:30:55.428Z,27.10
2022-12-02T21:35:58.580Z,27.40
2022-12-02T21:41:01.786Z,27.50
2022-12-02T21:46:06.403Z,27.70
2022-12-02T21:51:09.352Z,27.70
2022-12-02T21:56:12.160Z,27.70
2022-12-02T22:01:33.919Z,27.70
2022-12-02T22:06:37.008Z,27.60
2022-12-02T22:11:40.806Z,27.20
2022-12-02T22:16:45.397Z,27.00
2022-12-02T22:21:48.354Z,26.60
2022-12-02T22:26:51.449Z,26.40
2022-12-02T22:31:55.687Z,26.20
2022-12-02T22:36:58.589Z,26.00
2022-12-02T22:42:01.389Z,26.00
2022-12-02T22:47:06.449Z,26.10
2022-12-02T22:52:09.318Z,26.20
2022-12-02T22:57:12.179Z,26.20
2022-12-02T23:02:17.750Z,26.20
2022-12-02T23:07:20.698Z,26.00
2022-12-02T23:12:25.641Z,25.80
2022-12-02T23:17:29.900Z,25.70
2022-12-02T23:22:35.973Z,25.60
2022-12-02T23:27:39.134Z,25.50
2022-12-02T23:32:43.388Z,25.40
2022-12-02T23:37:46.242Z,25.30
2022-12-02T23:42:49.180Z,25.20
2022-12-02T23:47:53.360Z,25.10
2022-12-02T23:52:56.140Z,25.00
2022-12-02T23:57:58.929Z,24.90
